sensor_id;sensor_type;location;lat;lon;timestamp;pressure;altitude;pressure_sealevel;temperature;humidity
58239;BME280;44037;55.638;37.356;2023-05-02T00:00:55;99650.13;;;2.66;98.78
58239;BME280;44037;55.638;37.356;2023-05-02T00:03:24;99649.41;;;2.68;99.00
58239;BME280;44037;55.638;37.356;2023-05-02T00:05:52;99651.00;;;2.66;98.71
58239;BME280;44037;55.638;37.356;2023-05-02T00:08:19;99648.59;;;2.69;99.31
58239;BME280;44037;55.638;37.356;2023-05-02T00:10:46;99655.38;;;2.69;98.88
58239;BME280;44037;55.638;37.356;2023-05-02T00:13:13;99662.09;;;2.67;99.17
58239;BME280;44037;55.638;37.356;2023-05-02T00:15:40;99665.47;;;2.66;98.88
58239;BME280;44037;55.638;37.356;2023-05-02T00:18:09;99666.31;;;2.65;98.90
58239;BME280;44037;55.638;37.356;2023-05-02T00:20:38;99667.84;;;2.61;98.58
58239;BME280;44037;55.638;37.356;2023-05-02T00:23:06;99664.28;;;2.57;98.71
58239;BME280;44037;55.638;37.356;2023-05-02T00:25:33;99670.97;;;2.54;98.68
58239;BME280;44037;55.638;37.356;2023-05-02T00:28:00;99669.97;;;2.50;98.60
58239;BME280;44037;55.638;37.356;2023-05-02T00:30:27;99676.69;;;2.48;98.84
58239;BME280;44037;55.638;37.356;2023-05-02T00:32:54;99677.50;;;2.47;99.39
58239;BME280;44037;55.638;37.356;2023-05-02T00:35:23;99678.38;;;2.48;99.70
58239;BME280;44037;55.638;37.356;2023-05-02T00:37:50;99684.25;;;2.45;99.50
58239;BME280;44037;55.638;37.356;2023-05-02T00:40:18;99678.97;;;2.42;99.44
58239;BME280;44037;55.638;37.356;2023-05-02T00:42:45;99684.00;;;2.39;99.51
58239;BME280;44037;55.638;37.356;2023-05-02T00:45:13;99691.56;;;2.37;99.58
58239;BME280;44037;55.638;37.356;2023-05-02T00:47:40;99687.22;;;2.35;100.00
58239;BME280;44037;55.638;37.356;2023-05-02T00:50:08;99693.19;;;2.35;100.00
58239;BME280;44037;55.638;37.356;2023-05-02T00:52:36;99690.59;;;2.34;100.00
58239;BME280;44037;55.638;37.356;2023-05-02T00:55:05;99700.75;;;2.32;100.00
58239;BME280;44037;55.638;37.356;2023-05-02T00:57:32;99704.03;;;2.29;100.00
58239;BME280;44037;55.638;37.356;2023-05-02T01:00:00;99701.41;;;2.28;100.00
58239;BME280;44037;55.638;37.356;2023-05-02T01:02:39;99702.22;;;2.27;100.00
58239;BME280;44037;55.638;37.356;2023-05-02T01:05:14;99707.16;;;2.22;100.00
58239;BME280;44037;55.638;37.356;2023-05-02T01:07:59;99713.88;;;2.20;100.00
58239;BME280;44037;55.638;37.356;2023-05-02T01:10:35;99715.47;;;2.18;100.00
58239;BME280;44037;55.638;37.356;2023-05-02T01:13:08;99711.16;;;2.17;100.00
58239;BME280;44037;55.638;37.356;2023-05-02T01:15:38;99717.09;;;2.16;100.00
58239;BME280;44037;55.638;37.356;2023-05-02T01:18:08;99723.84;;;2.14;100.00
58239;BME280;44037;55.638;37.356;2023-05-02T01:20:38;99726.31;;;2.12;100.00
58239;BME280;44037;55.638;37.356;2023-05-02T01:23:16;99727.06;;;2.10;100.00
58239;BME280;44037;55.638;37.356;2023-05-02T01:25:55;99729.53;;;2.08;100.00
58239;BME280;44037;55.638;37.356;2023-05-02T01:28:33;99735.38;;;2.06;100.00
58239;BME280;44037;55.638;37.356;2023-05-02T01:31:05;99735.38;;;2.06;100.00
58239;BME280;44037;55.638;37.356;2023-05-02T01:33:34;99738.69;;;2.03;100.00
58239;BME280;44037;55.638;37.356;2023-05-02T01:36:03;99737.72;;;2.01;100.00
58239;BME280;44037;55.638;37.356;2023-05-02T01:38:32;99748.84;;;2.02;100.00
58239;BME280;44037;55.638;37.356;2023-05-02T01:41:01;99753.06;;;2.01;100.00
58239;BME280;44037;55.638;37.356;2023-05-02T01:43:32;99756.56;;;2.03;100.00
58239;BME280;44037;55.638;37.356;2023-05-02T01:46:01;99762.53;;;2.04;100.00
58239;BME280;44037;55.638;37.356;2023-05-02T01:48:31;99762.63;;;2.05;100.00
58239;BME280;44037;55.638;37.356;2023-05-02T01:50:59;99762.63;;;2.05;100.00
58239;BME280;44037;55.638;37.356;2023-05-02T01:53:29;99770.41;;;2.08;100.00
58239;BME280;44037;55.638;37.356;2023-05-02T01:55:59;99774.81;;;2.11;100.00
58239;BME280;44037;55.638;37.356;2023-05-02T01:58:28;99771.47;;;2.12;100.00
58239;BME280;44037;55.638;37.356;2023-05-02T02:00:58;99771.56;;;2.15;100.00
58239;BME280;44037;55.638;37.356;2023-05-02T02:03:27;99776.69;;;2.15;100.00
58239;BME280;44037;55.638;37.356;2023-05-02T02:05:57;99779.47;;;2.20;100.00
58239;BME280;44037;55.638;37.356;2023-05-02T02:08:25;99780.75;;;2.29;100.00
58239;BME280;44037;55.638;37.356;2023-05-02T02:10:56;99784.59;;;2.39;100.00
58239;BME280;44037;55.638;37.356;2023-05-02T02:13:27;99779.06;;;2.50;100.00
58239;BME280;44037;55.638;37.356;2023-05-02T02:16:01;99787.38;;;2.64;100.00
58239;BME280;44037;55.638;37.356;2023-05-02T02:18:35;99793.88;;;2.76;100.00
58239;BME280;44037;55.638;37.356;2023-05-02T02:21:08;99796.91;;;2.87;100.00
58239;BME280;44037;55.638;37.356;2023-05-02T02:23:36;99794.78;;;2.98;100.00
58239;BME280;44037;55.638;37.356;2023-05-02T02:26:08;99793.66;;;3.13;100.00
58239;BME280;44037;55.638;37.356;2023-05-02T02:28:35;99803.66;;;3.28;100.00
58239;BME280;44037;55.638;37.356;2023-05-02T02:31:03;99810.22;;;3.42;100.00
58239;BME280;44037;55.638;37.356;2023-05-02T02:33:30;99804.91;;;3.59;100.00
58239;BME280;44037;55.638;37.356;2023-05-02T02:36:03;99804.59;;;3.72;100.00
58239;BME280;44037;55.638;37.356;2023-05-02T02:38:39;99804.25;;;3.86;100.00
58239;BME280;44037;55.638;37.356;2023-05-02T02:41:13;99813.22;;;3.97;98.83
58239;BME280;44037;55.638;37.356;2023-05-02T02:43:48;99812.72;;;4.06;98.35
58239;BME280;44037;55.638;37.356;2023-05-02T02:46:27;99817.41;;;4.18;97.71
58239;BME280;44037;55.638;37.356;2023-05-02T02:49:07;99816.97;;;4.28;96.92
58239;BME280;44037;55.638;37.356;2023-05-02T02:51:45;99817.44;;;4.40;96.51
58239;BME280;44037;55.638;37.356;2023-05-02T02:54:20;99807.53;;;4.51;96.09
58239;BME280;44037;55.638;37.356;2023-05-02T02:56:57;99809.53;;;4.58;95.82
58239;BME280;44037;55.638;37.356;2023-05-02T02:59:28;99816.56;;;4.64;96.19
58239;BME280;44037;55.638;37.356;2023-05-02T03:02:03;99815.84;;;4.68;95.07
58239;BME280;44037;55.638;37.356;2023-05-02T03:04:33;99819.28;;;4.69;95.06
58239;BME280;44037;55.638;37.356;2023-05-02T03:07:01;99820.16;;;4.69;94.96
58239;BME280;44037;55.638;37.356;2023-05-02T03:09:41;99816.66;;;4.67;93.98
58239;BME280;44037;55.638;37.356;2023-05-02T03:12:08;99819.22;;;4.67;94.34
58239;BME280;44037;55.638;37.356;2023-05-02T03:14:36;99829.44;;;4.66;93.96
58239;BME280;44037;55.638;37.356;2023-05-02T03:17:03;99831.97;;;4.64;94.10
58239;BME280;44037;55.638;37.356;2023-05-02T03:19:30;99836.22;;;4.64;92.60
58239;BME280;44037;55.638;37.356;2023-05-02T03:21:57;99834.75;;;4.46;89.69
58239;BME280;44037;55.638;37.356;2023-05-02T03:24:25;99851.00;;;4.24;91.76
58239;BME280;44037;55.638;37.356;2023-05-02T03:26:55;99851.22;;;4.07;92.42
58239;BME280;44037;55.638;37.356;2023-05-02T03:29:24;99860.44;;;4.02;93.93
58239;BME280;44037;55.638;37.356;2023-05-02T03:31:51;99865.25;;;4.15;94.98
58239;BME280;44037;55.638;37.356;2023-05-02T03:34:18;99861.97;;;4.20;94.18
58239;BME280;44037;55.638;37.356;2023-05-02T03:36:46;99868.97;;;4.24;94.77
58239;BME280;44037;55.638;37.356;2023-05-02T03:39:14;99872.03;;;4.38;94.67
58239;BME280;44037;55.638;37.356;2023-05-02T03:41:41;99875.66;;;4.43;93.05
58239;BME280;44037;55.638;37.356;2023-05-02T03:44:10;99879.19;;;4.45;93.40
58239;BME280;44037;55.638;37.356;2023-05-02T03:46:37;99877.59;;;4.49;93.63
58239;BME280;44037;55.638;37.356;2023-05-02T03:49:04;99878.53;;;4.51;92.95
58239;BME280;44037;55.638;37.356;2023-05-02T03:51:31;99876.06;;;4.54;90.94
58239;BME280;44037;55.638;37.356;2023-05-02T03:54:00;99880.50;;;4.58;90.87
58239;BME280;44037;55.638;37.356;2023-05-02T03:56:27;99878.22;;;4.66;90.93
58239;BME280;44037;55.638;37.356;2023-05-02T03:58:55;99877.69;;;4.74;90.67
58239;BME280;44037;55.638;37.356;2023-05-02T04:01:24;99878.13;;;4.87;90.46
58239;BME280;44037;55.638;37.356;2023-05-02T04:03:51;99884.47;;;4.97;89.76
58239;BME280;44037;55.638;37.356;2023-05-02T04:06:18;99883.91;;;5.05;88.23
58239;BME280;44037;55.638;37.356;2023-05-02T04:08:46;99888.50;;;5.14;88.68
58239;BME280;44037;55.638;37.356;2023-05-02T04:11:13;99887.94;;;5.23;87.33
58239;BME280;44037;55.638;37.356;2023-05-02T04:13:40;99885.75;;;5.34;86.87
58239;BME280;44037;55.638;37.356;2023-05-02T04:16:08;99887.84;;;5.46;85.92
58239;BME280;44037;55.638;37.356;2023-05-02T04:18:36;99891.72;;;5.59;85.83
58239;BME280;44037;55.638;37.356;2023-05-02T04:21:06;99891.13;;;5.67;83.65
58239;BME280;44037;55.638;37.356;2023-05-02T04:23:34;99888.88;;;5.77;83.92
58239;BME280;44037;55.638;37.356;2023-05-02T04:26:01;99896.06;;;5.87;82.96
58239;BME280;44037;55.638;37.356;2023-05-02T04:28:28;99889.53;;;5.97;81.18
58239;BME280;44037;55.638;37.356;2023-05-02T04:30:55;99906.91;;;6.04;80.60
58239;BME280;44037;55.638;37.356;2023-05-02T04:33:23;99903.63;;;6.08;81.16
58239;BME280;44037;55.638;37.356;2023-05-02T04:35:51;99910.66;;;6.14;80.76
58239;BME280;44037;55.638;37.356;2023-05-02T04:38:19;99909.28;;;6.25;79.87
58239;BME280;44037;55.638;37.356;2023-05-02T04:40:46;99917.41;;;6.38;79.01
58239;BME280;44037;55.638;37.356;2023-05-02T04:43:13;99915.09;;;6.47;77.94
58239;BME280;44037;55.638;37.356;2023-05-02T04:45:40;99918.00;;;6.58;76.76
58239;BME280;44037;55.638;37.356;2023-05-02T04:48:07;99918.25;;;6.67;76.03
58239;BME280;44037;55.638;37.356;2023-05-02T04:50:34;99917.66;;;6.76;75.64
58239;BME280;44037;55.638;37.356;2023-05-02T04:53:03;99926.44;;;6.83;75.07
58239;BME280;44037;55.638;37.356;2023-05-02T04:55:30;99929.25;;;6.90;74.07
58239;BME280;44037;55.638;37.356;2023-05-02T04:57:57;99932.88;;;6.97;75.05
58239;BME280;44037;55.638;37.356;2023-05-02T05:00:24;99936.50;;;7.04;73.93
58239;BME280;44037;55.638;37.356;2023-05-02T05:02:52;99924.66;;;7.11;73.47
58239;BME280;44037;55.638;37.356;2023-05-02T05:05:19;99925.69;;;7.17;72.65
58239;BME280;44037;55.638;37.356;2023-05-02T05:07:46;99928.28;;;7.19;71.66
58239;BME280;44037;55.638;37.356;2023-05-02T05:10:17;99931.72;;;7.19;71.99
58239;BME280;44037;55.638;37.356;2023-05-02T05:12:46;99932.75;;;7.25;72.22
58239;BME280;44037;55.638;37.356;2023-05-02T05:15:14;99928.78;;;7.37;72.40
58239;BME280;44037;55.638;37.356;2023-05-02T05:17:41;99923.91;;;7.48;71.99
58239;BME280;44037;55.638;37.356;2023-05-02T05:20:08;99933.69;;;7.60;72.52
58239;BME280;44037;55.638;37.356;2023-05-02T05:22:37;99924.53;;;7.73;71.54
58239;BME280;44037;55.638;37.356;2023-05-02T05:25:07;99930.09;;;7.89;71.93
58239;BME280;44037;55.638;37.356;2023-05-02T05:27:36;99932.22;;;8.05;72.23
58239;BME280;44037;55.638;37.356;2023-05-02T05:30:05;99932.56;;;8.21;72.42
58239;BME280;44037;55.638;37.356;2023-05-02T05:32:33;99937.19;;;8.34;72.32
58239;BME280;44037;55.638;37.356;2023-05-02T05:35:00;99933.19;;;8.47;72.07
58239;BME280;44037;55.638;37.356;2023-05-02T05:37:29;99938.75;;;8.64;72.90
58239;BME280;44037;55.638;37.356;2023-05-02T05:39:56;99935.59;;;8.79;71.96
58239;BME280;44037;55.638;37.356;2023-05-02T05:42:24;99940.09;;;8.88;69.85
58239;BME280;44037;55.638;37.356;2023-05-02T05:44:53;99939.38;;;8.95;69.68
58239;BME280;44037;55.638;37.356;2023-05-02T05:47:20;99929.28;;;9.07;69.23
58239;BME280;44037;55.638;37.356;2023-05-02T05:49:51;99926.84;;;9.15;67.73
58239;BME280;44037;55.638;37.356;2023-05-02T05:52:19;99931.34;;;9.24;68.71
58239;BME280;44037;55.638;37.356;2023-05-02T05:54:46;99929.91;;;9.40;68.51
58239;BME280;44037;55.638;37.356;2023-05-02T05:57:13;99933.53;;;9.50;67.40
58239;BME280;44037;55.638;37.356;2023-05-02T05:59:40;99930.09;;;9.49;64.14
58239;BME280;44037;55.638;37.356;2023-05-02T06:02:09;99932.69;;;9.49;63.82
58239;BME280;44037;55.638;37.356;2023-05-02T06:04:36;99930.22;;;9.57;63.25
58239;BME280;44037;55.638;37.356;2023-05-02T06:07:03;99924.38;;;9.69;63.17
58239;BME280;44037;55.638;37.356;2023-05-02T06:09:30;99926.34;;;9.84;55.99
58239;BME280;44037;55.638;37.356;2023-05-02T06:11:57;99929.03;;;9.89;55.17
58239;BME280;44037;55.638;37.356;2023-05-02T06:14:26;99926.56;;;9.96;55.84
58239;BME280;44037;55.638;37.356;2023-05-02T06:16:53;99931.78;;;9.99;55.44
58239;BME280;44037;55.638;37.356;2023-05-02T06:19:22;99922.38;;;10.05;56.56
58239;BME280;44037;55.638;37.356;2023-05-02T06:21:49;99929.38;;;10.12;55.94
58239;BME280;44037;55.638;37.356;2023-05-02T06:24:16;99927.88;;;10.25;53.61
58239;BME280;44037;55.638;37.356;2023-05-02T06:26:43;99928.69;;;10.22;55.30
58239;BME280;44037;55.638;37.356;2023-05-02T06:29:11;99928.00;;;10.33;54.30
58239;BME280;44037;55.638;37.356;2023-05-02T06:31:38;99931.72;;;10.50;52.91
58239;BME280;44037;55.638;37.356;2023-05-02T06:34:05;99925.84;;;10.62;51.65
58239;BME280;44037;55.638;37.356;2023-05-02T06:36:33;99931.81;;;10.56;50.01
58239;BME280;44037;55.638;37.356;2023-05-02T06:39:01;99929.97;;;10.49;52.05
58239;BME280;44037;55.638;37.356;2023-05-02T06:41:28;99933.56;;;10.60;53.49
58239;BME280;44037;55.638;37.356;2023-05-02T06:43:56;99943.34;;;10.80;53.32
58239;BME280;44037;55.638;37.356;2023-05-02T06:46:23;99940.03;;;10.92;50.64
58239;BME280;44037;55.638;37.356;2023-05-02T06:48:50;99934.84;;;10.90;49.17
58239;BME280;44037;55.638;37.356;2023-05-02T06:51:17;99937.34;;;10.83;48.66
58239;BME280;44037;55.638;37.356;2023-05-02T06:53:47;99950.22;;;10.77;48.32
58239;BME280;44037;55.638;37.356;2023-05-02T06:56:14;99932.84;;;10.69;48.53
58239;BME280;44037;55.638;37.356;2023-05-02T06:58:41;99940.53;;;10.63;47.87
58239;BME280;44037;55.638;37.356;2023-05-02T07:01:09;99936.91;;;10.50;47.02
58239;BME280;44037;55.638;37.356;2023-05-02T07:03:37;99935.06;;;10.43;49.01
58239;BME280;44037;55.638;37.356;2023-05-02T07:06:04;99938.50;;;10.42;48.62
58239;BME280;44037;55.638;37.356;2023-05-02T07:08:31;99940.22;;;10.40;48.73
58239;BME280;44037;55.638;37.356;2023-05-02T07:11:00;99944.53;;;10.39;46.85
58239;BME280;44037;55.638;37.356;2023-05-02T07:13:28;99938.41;;;10.37;48.82
58239;BME280;44037;55.638;37.356;2023-05-02T07:15:55;99945.38;;;10.40;49.07
58239;BME280;44037;55.638;37.356;2023-05-02T07:18:22;99941.13;;;10.43;48.45
58239;BME280;44037;55.638;37.356;2023-05-02T07:20:49;99936.88;;;10.49;48.87
58239;BME280;44037;55.638;37.356;2023-05-02T07:23:16;99936.94;;;10.53;49.86
58239;BME280;44037;55.638;37.356;2023-05-02T07:25:46;99936.16;;;10.60;49.36
58239;BME280;44037;55.638;37.356;2023-05-02T07:28:15;99937.97;;;10.66;48.81
58239;BME280;44037;55.638;37.356;2023-05-02T07:30:42;99931.97;;;10.69;48.65
58239;BME280;44037;55.638;37.356;2023-05-02T07:33:09;99928.53;;;10.71;49.63
58239;BME280;44037;55.638;37.356;2023-05-02T07:35:36;99937.22;;;10.75;49.26
58239;BME280;44037;55.638;37.356;2023-05-02T07:38:03;99932.88;;;10.72;48.83
58239;BME280;44037;55.638;37.356;2023-05-02T07:40:30;99932.88;;;10.71;47.38
58239;BME280;44037;55.638;37.356;2023-05-02T07:42:59;99933.69;;;10.68;45.66
58239;BME280;44037;55.638;37.356;2023-05-02T07:45:28;99939.69;;;10.64;44.65
58239;BME280;44037;55.638;37.356;2023-05-02T07:47:55;99931.88;;;10.63;45.05
58239;BME280;44037;55.638;37.356;2023-05-02T07:50:22;99937.91;;;10.62;44.71
58239;BME280;44037;55.638;37.356;2023-05-02T07:52:50;99930.97;;;10.60;45.24
58239;BME280;44037;55.638;37.356;2023-05-02T07:55:17;99925.84;;;10.64;45.53
58239;BME280;44037;55.638;37.356;2023-05-02T07:57:45;99919.03;;;10.69;44.66
58239;BME280;44037;55.638;37.356;2023-05-02T08:00:14;99917.34;;;10.74;45.57
58239;BME280;44037;55.638;37.356;2023-05-02T08:02:42;99922.63;;;10.82;45.59
58239;BME280;44037;55.638;37.356;2023-05-02T08:05:10;99919.28;;;10.90;45.95
58239;BME280;44037;55.638;37.356;2023-05-02T08:07:37;99915.94;;;10.99;47.39
58239;BME280;44037;55.638;37.356;2023-05-02T08:10:05;99916.09;;;11.12;46.94
58239;BME280;44037;55.638;37.356;2023-05-02T08:12:37;99918.81;;;11.26;45.99
58239;BME280;44037;55.638;37.356;2023-05-02T08:15:05;99909.41;;;11.35;45.50
58239;BME280;44037;55.638;37.356;2023-05-02T08:17:33;99910.25;;;11.33;43.34
58239;BME280;44037;55.638;37.356;2023-05-02T08:20:01;99913.66;;;11.29;43.23
58239;BME280;44037;55.638;37.356;2023-05-02T08:22:32;99916.25;;;11.30;40.52
58239;BME280;44037;55.638;37.356;2023-05-02T08:24:59;99912.84;;;11.33;40.14
58239;BME280;44037;55.638;37.356;2023-05-02T08:27:26;99915.44;;;11.33;40.59
58239;BME280;44037;55.638;37.356;2023-05-02T08:29:54;99912.00;;;11.34;41.00
58239;BME280;44037;55.638;37.356;2023-05-02T08:32:21;99912.91;;;11.41;40.67
58239;BME280;44037;55.638;37.356;2023-05-02T08:34:48;99907.84;;;11.50;40.50
58239;BME280;44037;55.638;37.356;2023-05-02T08:37:16;99906.97;;;11.54;40.98
58239;BME280;44037;55.638;37.356;2023-05-02T08:39:44;99909.66;;;11.60;41.16
58239;BME280;44037;55.638;37.356;2023-05-02T08:42:11;99913.22;;;11.70;39.99
58239;BME280;44037;55.638;37.356;2023-05-02T08:44:38;99906.31;;;11.75;40.06
58239;BME280;44037;55.638;37.356;2023-05-02T08:47:05;99905.53;;;11.82;38.70
58239;BME280;44037;55.638;37.356;2023-05-02T08:49:34;99902.94;;;11.84;38.68
58239;BME280;44037;55.638;37.356;2023-05-02T08:52:03;99903.78;;;11.81;37.68
58239;BME280;44037;55.638;37.356;2023-05-02T08:54:36;99893.47;;;11.89;40.32
58239;BME280;44037;55.638;37.356;2023-05-02T08:57:04;99901.47;;;12.14;38.88
58239;BME280;44037;55.638;37.356;2023-05-02T08:59:31;99893.75;;;12.28;37.87
58239;BME280;44037;55.638;37.356;2023-05-02T09:02:04;99895.50;;;12.35;38.25
58239;BME280;44037;55.638;37.356;2023-05-02T09:04:40;99890.38;;;12.48;39.04
58239;BME280;44037;55.638;37.356;2023-05-02T09:07:07;99886.13;;;12.57;38.71
58239;BME280;44037;55.638;37.356;2023-05-02T09:09:36;99885.28;;;12.66;39.38
58239;BME280;44037;55.638;37.356;2023-05-02T09:12:04;99877.53;;;12.72;38.46
58239;BME280;44037;55.638;37.356;2023-05-02T09:14:31;99881.00;;;12.79;38.85
58239;BME280;44037;55.638;37.356;2023-05-02T09:16:58;99879.28;;;12.86;37.75
58239;BME280;44037;55.638;37.356;2023-05-02T09:19:26;99874.09;;;12.84;37.33
58239;BME280;44037;55.638;37.356;2023-05-02T09:21:59;99883.63;;;12.81;37.74
58239;BME280;44037;55.638;37.356;2023-05-02T09:24:27;99881.00;;;12.78;36.36
58239;BME280;44037;55.638;37.356;2023-05-02T09:27:00;99877.50;;;12.71;36.50
58239;BME280;44037;55.638;37.356;2023-05-02T09:29:28;99876.63;;;12.67;36.78
58239;BME280;44037;55.638;37.356;2023-05-02T09:32:00;99874.91;;;12.66;36.40
58239;BME280;44037;55.638;37.356;2023-05-02T09:34:28;99873.16;;;12.64;36.41
58239;BME280;44037;55.638;37.356;2023-05-02T09:36:56;99863.63;;;12.64;37.04
58239;BME280;44037;55.638;37.356;2023-05-02T09:39:25;99861.91;;;12.66;36.27
58239;BME280;44037;55.638;37.356;2023-05-02T09:41:53;99862.78;;;12.68;36.99
58239;BME280;44037;55.638;37.356;2023-05-02T09:44:24;99858.47;;;12.72;36.61
58239;BME280;44037;55.638;37.356;2023-05-02T09:46:54;99864.53;;;12.69;36.91
58239;BME280;44037;55.638;37.356;2023-05-02T09:49:40;99864.53;;;12.75;36.88
58239;BME280;44037;55.638;37.356;2023-05-02T09:52:11;99865.41;;;12.79;36.82
58239;BME280;44037;55.638;37.356;2023-05-02T09:54:40;99860.22;;;12.82;36.23
58239;BME280;44037;55.638;37.356;2023-05-02T09:57:07;99857.66;;;12.84;35.86
58239;BME280;44037;55.638;37.356;2023-05-02T09:59:38;99855.88;;;12.86;35.54
58239;BME280;44037;55.638;37.356;2023-05-02T10:02:06;99846.38;;;12.91;35.91
58239;BME280;44037;55.638;37.356;2023-05-02T10:04:35;99851.59;;;12.91;35.63
58239;BME280;44037;55.638;37.356;2023-05-02T10:07:04;99842.00;;;12.78;36.14
58239;BME280;44037;55.638;37.356;2023-05-02T10:09:34;99850.72;;;12.89;36.21
58239;BME280;44037;55.638;37.356;2023-05-02T10:12:02;99842.06;;;12.92;37.35
58239;BME280;44037;55.638;37.356;2023-05-02T10:14:34;99841.22;;;13.02;37.69
58239;BME280;44037;55.638;37.356;2023-05-02T10:17:13;99839.53;;;13.16;37.29
58239;BME280;44037;55.638;37.356;2023-05-02T10:19:51;99840.41;;;13.29;37.26
58239;BME280;44037;55.638;37.356;2023-05-02T10:22:23;99836.94;;;13.35;35.30
58239;BME280;44037;55.638;37.356;2023-05-02T10:25:02;99832.56;;;13.26;35.28
58239;BME280;44037;55.638;37.356;2023-05-02T10:27:33;99829.09;;;13.19;35.32
58239;BME280;44037;55.638;37.356;2023-05-02T10:30:04;99830.84;;;13.20;34.92
58239;BME280;44037;55.638;37.356;2023-05-02T10:32:37;99829.09;;;13.19;35.12
58239;BME280;44037;55.638;37.356;2023-05-02T10:35:10;99828.22;;;13.16;34.87
58239;BME280;44037;55.638;37.356;2023-05-02T10:37:39;99824.75;;;13.14;34.14
58239;BME280;44037;55.638;37.356;2023-05-02T10:40:09;99818.69;;;13.13;34.39
58239;BME280;44037;55.638;37.356;2023-05-02T10:42:39;99816.94;;;13.11;34.38
58239;BME280;44037;55.638;37.356;2023-05-02T10:45:10;99814.34;;;13.11;35.58
58239;BME280;44037;55.638;37.356;2023-05-02T10:47:39;99814.34;;;13.14;36.10
58239;BME280;44037;55.638;37.356;2023-05-02T10:50:07;99820.44;;;13.22;36.49
58239;BME280;44037;55.638;37.356;2023-05-02T10:52:35;99814.38;;;13.29;35.43
58239;BME280;44037;55.638;37.356;2023-05-02T10:55:13;99801.38;;;13.37;36.55
58239;BME280;44037;55.638;37.356;2023-05-02T10:58:19;99809.19;;;13.46;36.94
58239;BME280;44037;55.638;37.356;2023-05-02T11:00:48;99804.88;;;13.53;34.57
58239;BME280;44037;55.638;37.356;2023-05-02T11:03:54;99805.72;;;13.47;35.32
58239;BME280;44037;55.638;37.356;2023-05-02T11:06:22;99805.72;;;13.52;34.63
58239;BME280;44037;55.638;37.356;2023-05-02T11:08:50;99804.00;;;13.51;34.91
58239;BME280;44037;55.638;37.356;2023-05-02T11:11:39;99798.78;;;13.54;35.55
58239;BME280;44037;55.638;37.356;2023-05-02T11:14:10;99792.72;;;13.58;35.84
58239;BME280;44037;55.638;37.356;2023-05-02T11:17:08;99791.84;;;13.69;37.62
58239;BME280;44037;55.638;37.356;2023-05-02T11:22:38;99789.19;;;13.95;36.19
58239;BME280;44037;55.638;37.356;2023-05-02T11:25:32;99793.50;;;14.01;35.74
58239;BME280;44037;55.638;37.356;2023-05-02T11:28:00;99786.56;;;13.98;34.85
58239;BME280;44037;55.638;37.356;2023-05-02T11:30:44;99781.41;;;13.92;35.23
58239;BME280;44037;55.638;37.356;2023-05-02T11:33:17;99789.22;;;13.92;36.13
58239;BME280;44037;55.638;37.356;2023-05-02T11:35:46;99784.84;;;13.95;36.09
58239;BME280;44037;55.638;37.356;2023-05-02T11:38:17;99778.75;;;14.01;35.94
58239;BME280;44037;55.638;37.356;2023-05-02T11:40:52;99770.94;;;14.06;34.54
58239;BME280;44037;55.638;37.356;2023-05-02T11:43:22;99776.16;;;14.06;34.34
58239;BME280;44037;55.638;37.356;2023-05-02T11:45:51;99767.47;;;14.07;34.86
58239;BME280;44037;55.638;37.356;2023-05-02T11:48:20;99767.47;;;14.07;34.82
58239;BME280;44037;55.638;37.356;2023-05-02T11:50:50;99762.22;;;14.11;35.88
58239;BME280;44037;55.638;37.356;2023-05-02T11:53:20;99763.97;;;14.16;35.45
58239;BME280;44037;55.638;37.356;2023-05-02T11:55:51;99759.59;;;14.19;34.77
58239;BME280;44037;55.638;37.356;2023-05-02T11:58:20;99760.47;;;14.18;34.24
58239;BME280;44037;55.638;37.356;2023-05-02T12:00:48;99759.59;;;14.18;34.35
58239;BME280;44037;55.638;37.356;2023-05-02T12:03:21;99757.88;;;14.17;33.72
58239;BME280;44037;55.638;37.356;2023-05-02T12:05:48;99746.59;;;14.11;33.72
58239;BME280;44037;55.638;37.356;2023-05-02T12:08:26;99750.09;;;14.09;34.17
58239;BME280;44037;55.638;37.356;2023-05-02T12:10:55;99736.19;;;14.10;34.13
58239;BME280;44037;55.638;37.356;2023-05-02T12:13:23;99739.63;;;14.12;35.25
58239;BME280;44037;55.638;37.356;2023-05-02T12:15:55;99742.25;;;14.17;35.15
58239;BME280;44037;55.638;37.356;2023-05-02T12:18:26;99737.88;;;14.22;34.01
58239;BME280;44037;55.638;37.356;2023-05-02T12:20:54;99738.72;;;14.24;33.65
58239;BME280;44037;55.638;37.356;2023-05-02T12:23:24;99727.44;;;14.25;33.44
58239;BME280;44037;55.638;37.356;2023-05-02T12:25:52;99725.69;;;14.27;33.82
58239;BME280;44037;55.638;37.356;2023-05-02T12:28:20;99715.25;;;14.28;33.86
58239;BME280;44037;55.638;37.356;2023-05-02T12:30:49;99731.75;;;14.34;34.50
58239;BME280;44037;55.638;37.356;2023-05-02T12:33:17;99719.53;;;14.39;34.54
58239;BME280;44037;55.638;37.356;2023-05-02T12:35:44;99716.91;;;14.45;33.93
58239;BME280;44037;55.638;37.356;2023-05-02T12:38:14;99716.00;;;14.49;33.95
58239;BME280;44037;55.638;37.356;2023-05-02T12:40:50;99722.06;;;14.54;34.09
58239;BME280;44037;55.638;37.356;2023-05-02T12:43:17;99714.22;;;14.57;34.63
58239;BME280;44037;55.638;37.356;2023-05-02T12:45:46;99711.59;;;14.62;34.12
58239;BME280;44037;55.638;37.356;2023-05-02T12:48:22;99720.25;;;14.66;34.36
58239;BME280;44037;55.638;37.356;2023-05-02T12:50:50;99720.28;;;14.69;33.65
58239;BME280;44037;55.638;37.356;2023-05-02T12:53:36;99712.47;;;14.69;34.26
58239;BME280;44037;55.638;37.356;2023-05-02T12:56:06;99712.41;;;14.73;34.17
58239;BME280;44037;55.638;37.356;2023-05-02T12:58:40;99705.47;;;14.74;34.02
58239;BME280;44037;55.638;37.356;2023-05-02T13:01:08;99709.81;;;14.77;33.78
58239;BME280;44037;55.638;37.356;2023-05-02T13:03:36;99713.28;;;14.79;34.23
58239;BME280;44037;55.638;37.356;2023-05-02T13:06:04;99711.50;;;14.81;34.40
58239;BME280;44037;55.638;37.356;2023-05-02T13:08:31;99712.34;;;14.83;33.79